createdAt,value
2024-01-24T00:00:57.417Z,11.15
2024-01-24T00:01:57.891Z,11.15
2024-01-24T00:02:58.821Z,18.36
2024-01-24T00:03:59.848Z,18.36
2024-01-24T00:05:00.855Z,14.75
2024-01-24T00:06:01.781Z,14.75
2024-01-24T00:07:02.783Z,14.75
2024-01-24T00:08:03.788Z,16.56
2024-01-24T00:09:04.801Z,16.56
2024-01-24T00:10:05.780Z,16.56
2024-01-24T00:11:06.896Z,16.56
2024-01-24T00:12:07.834Z,12.95
2024-01-24T00:13:08.835Z,12.95
2024-01-24T00:14:09.781Z,12.95
2024-01-24T00:15:11.016Z,12.95
2024-01-24T00:16:11.799Z,11.15
2024-01-24T00:17:12.827Z,9.36
2024-01-24T00:18:13.969Z,12.95
2024-01-24T00:19:14.885Z,14.75
2024-01-24T00:20:15.836Z,14.75
2024-01-24T00:21:16.849Z,14.75
2024-01-24T00:22:17.785Z,12.95
2024-01-24T00:23:18.907Z,12.95
2024-01-24T00:24:19.853Z,11.15
2024-01-24T00:25:20.788Z,11.15
2024-01-24T00:26:21.822Z,11.15
2024-01-24T00:27:22.902Z,11.15
2024-01-24T00:28:23.797Z,12.95
2024-01-24T00:29:24.790Z,12.95
2024-01-24T00:30:26.002Z,16.56
2024-01-24T00:31:26.848Z,16.56
2024-01-24T00:32:27.883Z,16.56
2024-01-24T00:33:28.821Z,16.56
2024-01-24T00:34:29.824Z,14.75
2024-01-24T00:35:30.842Z,14.75
2024-01-24T00:36:31.884Z,14.75
2024-01-24T00:37:32.833Z,14.75
2024-01-24T00:38:33.814Z,14.75
2024-01-24T00:39:34.918Z,12.95
2024-01-24T00:40:35.809Z,16.56
2024-01-24T00:41:36.859Z,12.95
2024-01-24T00:42:37.814Z,12.95
2024-01-24T00:43:38.874Z,16.56
2024-01-24T00:44:39.889Z,20.16
2024-01-24T00:45:41.111Z,20.16
2024-01-24T00:46:41.897Z,18.36
2024-01-24T00:47:42.942Z,20.16
2024-01-24T00:48:43.982Z,20.16
2024-01-24T00:49:44.868Z,11.15
2024-01-24T00:50:45.894Z,16.56
2024-01-24T00:51:47.002Z,16.56
2024-01-24T00:52:47.896Z,18.36
2024-01-24T00:53:48.844Z,18.36
2024-01-24T00:54:49.912Z,18.36
2024-01-24T00:55:50.835Z,18.36
2024-01-24T00:56:51.860Z,18.36
2024-01-24T00:57:52.884Z,11.15
2024-01-24T00:58:53.847Z,12.95
2024-01-24T00:59:54.836Z,12.95
2024-01-24T01:00:56.107Z,12.95
2024-01-24T01:01:56.876Z,12.95
2024-01-24T01:02:57.988Z,12.95
2024-01-24T01:03:58.884Z,16.56
2024-01-24T01:04:59.936Z,12.95
2024-01-24T01:06:00.860Z,12.95
2024-01-24T01:07:01.867Z,11.15
2024-01-24T01:08:02.854Z,16.56
2024-01-24T01:09:03.862Z,16.56
2024-01-24T01:10:04.893Z,14.75
2024-01-24T01:11:05.851Z,14.75
2024-01-24T01:12:06.982Z,11.15
2024-01-24T01:13:07.852Z,16.56
2024-01-24T01:14:08.857Z,16.56
2024-01-24T01:15:10.108Z,16.56
2024-01-24T01:16:10.878Z,14.75
2024-01-24T01:17:11.887Z,14.75
2024-01-24T01:18:12.955Z,11.15
2024-01-24T01:19:13.898Z,9.36
2024-01-24T01:20:14.870Z,14.75
2024-01-24T01:21:16.055Z,14.75
2024-01-24T01:22:16.942Z,16.56
2024-01-24T01:23:17.885Z,9.36
2024-01-24T01:24:19.000Z,9.36
2024-01-24T01:25:19.915Z,14.75
2024-01-24T01:26:20.901Z,14.75
2024-01-24T01:27:21.943Z,14.75
2024-01-24T01:28:22.884Z,12.95
2024-01-24T01:29:23.896Z,12.95
2024-01-24T01:30:25.392Z,12.95
2024-01-24T01:31:26.127Z,12.95
2024-01-24T01:32:27.084Z,9.36
2024-01-24T01:33:28.376Z,11.15
2024-01-24T01:34:30.136Z,11.15
2024-01-24T01:35:30.764Z,9.36
2024-01-24T01:36:30.913Z,7.19
2024-01-24T01:37:31.899Z,9.36
2024-01-24T01:38:32.919Z,14.75
2024-01-24T01:39:34.035Z,14.75
2024-01-24T01:40:34.950Z,11.15
2024-01-24T01:41:35.916Z,11.15
2024-01-24T01:42:36.964Z,9.36
2024-01-24T01:43:37.954Z,14.75
2024-01-24T01:44:38.920Z,14.75
2024-01-24T01:45:40.142Z,11.15
2024-01-24T01:46:40.929Z,14.75
2024-01-24T01:47:41.997Z,14.75
2024-01-24T01:48:43.097Z,11.15
2024-01-24T01:49:44.051Z,12.95
2024-01-24T01:50:44.950Z,12.95
2024-01-24T01:51:45.960Z,12.95
2024-01-24T01:52:46.980Z,14.75
2024-01-24T01:53:47.962Z,14.75
2024-01-24T01:54:49.064Z,11.15
2024-01-24T01:55:49.977Z,11.15
2024-01-24T01:56:50.961Z,3.60
2024-01-24T01:57:52.084Z,12.95
2024-01-24T01:58:52.951Z,12.95
2024-01-24T01:59:53.956Z,12.95
2024-01-24T02:00:55.309Z,7.19
2024-01-24T02:01:55.965Z,7.19
2024-01-24T02:02:57.078Z,7.19
2024-01-24T02:03:58.230Z,14.75
2024-01-24T02:04:58.986Z,14.75
2024-01-24T02:06:00.017Z,11.15
2024-01-24T02:07:01.034Z,7.19
2024-01-24T02:08:01.981Z,7.19
2024-01-24T02:09:02.998Z,7.19
2024-01-24T02:10:04.004Z,5.40
2024-01-24T02:11:04.983Z,7.19
2024-01-24T02:12:05.985Z,14.75
2024-01-24T02:13:07.205Z,14.75
2024-01-24T02:14:07.998Z,11.15
2024-01-24T02:15:09.204Z,12.95
2024-01-24T02:16:10.006Z,12.95
2024-01-24T02:17:10.995Z,12.95
2024-01-24T02:18:12.112Z,12.95
2024-01-24T02:19:13.206Z,7.19
2024-01-24T02:20:14.100Z,11.15
2024-01-24T02:21:15.039Z,12.95
2024-01-24T02:22:16.306Z,12.95
2024-01-24T02:23:17.017Z,16.56
2024-01-24T02:24:18.098Z,12.95
2024-01-24T02:25:19.050Z,11.15
2024-01-24T02:26:20.118Z,11.15
2024-01-24T02:27:21.043Z,12.95
2024-01-24T02:28:22.109Z,9.36
2024-01-24T02:29:23.032Z,12.95
2024-01-24T02:30:24.250Z,12.95
2024-01-24T02:31:25.050Z,14.75
2024-01-24T02:32:26.065Z,14.75
2024-01-24T02:33:27.128Z,16.56
2024-01-24T02:34:28.252Z,16.56
2024-01-24T02:35:29.078Z,18.36
2024-01-24T02:36:30.088Z,18.36
2024-01-24T02:37:31.067Z,20.16
2024-01-24T02:38:32.043Z,14.75
2024-01-24T02:39:33.070Z,18.36
2024-01-24T02:40:34.156Z,18.36
2024-01-24T02:41:35.100Z,14.75
2024-01-24T02:42:36.145Z,16.56
2024-01-24T02:43:37.045Z,16.56
2024-01-24T02:44:38.088Z,16.56
2024-01-24T02:45:39.327Z,16.56
2024-01-24T02:46:40.088Z,16.56
2024-01-24T02:47:41.097Z,16.56
2024-01-24T02:48:42.171Z,9.36
2024-01-24T02:49:43.327Z,18.36
2024-01-24T02:50:44.111Z,18.36
2024-01-24T02:51:45.132Z,18.36
2024-01-24T02:52:46.100Z,14.75
2024-01-24T02:53:47.112Z,7.19
2024-01-24T02:54:48.145Z,9.36
2024-01-24T02:55:49.111Z,9.36
2024-01-24T02:56:50.122Z,16.56
2024-01-24T02:57:51.168Z,16.56
2024-01-24T02:58:52.134Z,11.15
2024-01-24T02:59:53.098Z,11.15
2024-01-24T03:00:54.355Z,12.95
2024-01-24T03:01:55.157Z,11.15
2024-01-24T03:02:56.120Z,16.56
2024-01-24T03:03:57.180Z,12.95
2024-01-24T03:04:58.214Z,12.95
2024-01-24T03:05:59.189Z,18.36
2024-01-24T03:07:00.293Z,18.36
2024-01-24T03:08:01.101Z,14.75
2024-01-24T03:09:02.119Z,12.95
2024-01-24T03:10:03.135Z,18.36
2024-01-24T03:11:04.134Z,21.96
2024-01-24T03:12:05.131Z,16.56
2024-01-24T03:13:06.164Z,16.56
2024-01-24T03:14:07.223Z,16.56
2024-01-24T03:15:08.336Z,16.56
2024-01-24T03:16:09.134Z,16.56
2024-01-24T03:17:10.158Z,16.56
2024-01-24T03:18:11.268Z,12.95
2024-01-24T03:19:12.248Z,14.75
2024-01-24T03:20:13.208Z,14.75
2024-01-24T03:21:14.186Z,12.95
2024-01-24T03:22:15.139Z,16.56
2024-01-24T03:23:16.160Z,16.56
2024-01-24T03:24:17.274Z,16.56
2024-01-24T03:25:18.189Z,21.96
2024-01-24T03:26:19.184Z,16.56
2024-01-24T03:27:20.220Z,11.15
2024-01-24T03:28:21.183Z,11.15
2024-01-24T03:29:22.217Z,16.56
2024-01-24T03:30:23.367Z,23.75
2024-01-24T03:31:24.170Z,23.75
2024-01-24T03:32:25.268Z,12.95
2024-01-24T03:33:26.215Z,12.95
2024-01-24T03:34:27.236Z,12.95
2024-01-24T03:35:28.274Z,14.75
2024-01-24T03:36:29.199Z,16.56
2024-01-24T03:37:30.200Z,16.56
2024-01-24T03:38:31.179Z,18.36
2024-01-24T03:39:32.263Z,20.16
2024-01-24T03:40:33.184Z,21.96
2024-01-24T03:41:34.225Z,11.15
2024-01-24T03:42:35.264Z,12.95
2024-01-24T03:43:36.225Z,12.95
2024-01-24T03:44:37.196Z,14.75
2024-01-24T03:45:38.462Z,14.75
2024-01-24T03:46:39.219Z,12.95
2024-01-24T03:47:40.274Z,12.95
2024-01-24T03:48:41.380Z,21.96
2024-01-24T03:49:42.261Z,21.96
2024-01-24T03:50:43.302Z,12.95
2024-01-24T03:51:44.382Z,16.56
2024-01-24T03:52:45.218Z,16.56
2024-01-24T03:53:46.234Z,7.19
2024-01-24T03:54:47.279Z,12.95
2024-01-24T03:55:48.269Z,14.75
2024-01-24T03:56:49.238Z,18.36
2024-01-24T03:57:50.273Z,5.40
2024-01-24T03:58:51.224Z,12.95
2024-01-24T03:59:52.252Z,12.95
2024-01-24T04:00:54.038Z,14.75
2024-01-24T04:01:54.285Z,14.75
2024-01-24T04:02:55.224Z,9.36
2024-01-24T04:03:56.362Z,12.95
2024-01-24T04:04:57.287Z,12.95
2024-01-24T04:05:58.394Z,12.95
2024-01-24T04:06:59.357Z,14.75
2024-01-24T04:08:00.249Z,14.75
2024-01-24T04:09:01.241Z,14.75
2024-01-24T04:10:02.283Z,14.75
2024-01-24T04:11:03.257Z,11.15
2024-01-24T04:12:04.257Z,14.75
2024-01-24T04:13:05.262Z,14.75
2024-01-24T04:14:06.309Z,9.36
2024-01-24T04:15:07.552Z,9.36
2024-01-24T04:16:08.306Z,18.36
2024-01-24T04:17:09.256Z,18.36
2024-01-24T04:18:10.337Z,18.36
2024-01-24T04:19:11.369Z,18.36
2024-01-24T04:20:12.283Z,14.75
2024-01-24T04:21:13.354Z,12.95
2024-01-24T04:22:14.277Z,11.15
2024-01-24T04:23:15.270Z,14.75
2024-01-24T04:24:16.333Z,14.75
2024-01-24T04:25:17.278Z,11.15
2024-01-24T04:26:18.273Z,11.15
2024-01-24T04:27:19.306Z,11.15
2024-01-24T04:28:20.285Z,12.95
2024-01-24T04:29:21.258Z,12.95
2024-01-24T04:30:22.471Z,12.95
2024-01-24T04:31:23.399Z,12.95
2024-01-24T04:32:24.360Z,12.95
2024-01-24T04:33:25.379Z,11.15
2024-01-24T04:34:26.369Z,14.75
2024-01-24T04:35:27.296Z,16.56
2024-01-24T04:36:28.398Z,16.56
2024-01-24T04:37:29.285Z,9.36
2024-01-24T04:38:30.282Z,9.36
2024-01-24T04:39:31.292Z,9.36
2024-01-24T04:40:32.287Z,11.15
2024-01-24T04:41:33.322Z,11.15
2024-01-24T04:42:34.318Z,11.15
2024-01-24T04:43:35.314Z,11.15
2024-01-24T04:44:36.317Z,9.36
2024-01-24T04:45:37.541Z,12.95
2024-01-24T04:46:38.297Z,12.95
2024-01-24T04:47:39.333Z,11.15
2024-01-24T04:48:40.378Z,14.75
2024-01-24T04:49:45.064Z,14.75
2024-01-24T04:50:42.358Z,11.15
2024-01-24T04:51:43.504Z,11.15
2024-01-24T04:52:44.303Z,9.36
2024-01-24T04:53:45.289Z,14.75
2024-01-24T04:54:46.378Z,16.56
2024-01-24T04:55:47.330Z,16.56
2024-01-24T04:56:48.312Z,11.15
2024-01-24T04:57:49.345Z,12.95
2024-01-24T04:58:50.319Z,12.95
2024-01-24T04:59:55.967Z,11.15
2024-01-24T05:00:52.538Z,11.15
2024-01-24T05:01:53.313Z,11.15
2024-01-24T05:02:54.321Z,16.56
2024-01-24T05:03:55.456Z,16.56
2024-01-24T05:04:56.322Z,9.36
2024-01-24T05:06:04.373Z,16.56
2024-01-24T05:06:58.442Z,14.75
2024-01-24T05:07:59.298Z,16.56
2024-01-24T05:09:00.333Z,16.56
2024-01-24T05:10:01.364Z,20.16
2024-01-24T05:11:02.298Z,20.16
2024-01-24T05:12:03.313Z,12.95
2024-01-24T05:13:04.358Z,9.36
2024-01-24T05:14:05.341Z,14.75
2024-01-24T05:15:06.517Z,14.75
2024-01-24T05:16:07.437Z,11.15
2024-01-24T05:17:08.328Z,12.95
2024-01-24T05:18:09.382Z,12.95
2024-01-24T05:19:10.423Z,9.36
2024-01-24T05:20:11.326Z,9.36
2024-01-24T05:21:12.320Z,5.40
2024-01-24T05:22:13.426Z,11.15
2024-01-24T05:23:14.343Z,11.15
2024-01-24T05:24:15.378Z,7.19
2024-01-24T05:25:16.413Z,5.40
2024-01-24T05:26:17.329Z,5.40
2024-01-24T05:27:18.524Z,5.40
2024-01-24T05:28:19.349Z,5.40
2024-01-24T05:29:20.437Z,11.15
2024-01-24T05:30:33.832Z,5.40
2024-01-24T05:31:22.423Z,11.15
2024-01-24T05:32:23.376Z,11.15
2024-01-24T05:33:24.411Z,11.15
2024-01-24T05:34:25.410Z,11.15
2024-01-24T05:35:26.353Z,7.19
2024-01-24T05:36:27.377Z,12.95
2024-01-24T05:37:28.385Z,12.95
2024-01-24T05:38:29.344Z,7.19
2024-01-24T05:39:30.374Z,9.36
2024-01-24T05:40:31.346Z,9.36
2024-01-24T05:41:32.333Z,16.56
2024-01-24T05:42:33.355Z,16.56
2024-01-24T05:43:34.317Z,16.56
2024-01-24T05:44:35.369Z,12.95
2024-01-24T05:45:36.526Z,12.95
2024-01-24T05:46:37.464Z,12.95
2024-01-24T05:47:38.421Z,14.75
2024-01-24T05:48:39.535Z,14.75
2024-01-24T05:49:40.352Z,12.95
2024-01-24T05:50:41.344Z,12.95
2024-01-24T05:51:42.362Z,12.95
2024-01-24T05:52:43.992Z,14.75
2024-01-24T05:53:44.360Z,14.75
2024-01-24T05:54:45.397Z,14.75
2024-01-24T05:55:46.387Z,12.95
2024-01-24T05:56:47.357Z,12.95
2024-01-24T05:57:48.417Z,7.19
2024-01-24T05:58:49.368Z,7.19
2024-01-24T05:59:50.432Z,12.95
2024-01-24T06:00:51.640Z,12.95
2024-01-24T06:01:52.387Z,16.56
2024-01-24T06:02:53.349Z,16.56
2024-01-24T06:03:54.544Z,11.15
2024-01-24T06:04:55.515Z,9.36
2024-01-24T06:05:56.714Z,9.36
2024-01-24T06:06:57.443Z,12.95
2024-01-24T06:07:58.491Z,9.36
2024-01-24T06:08:59.347Z,16.56
2024-01-24T06:10:00.572Z,16.56
2024-01-24T06:11:01.379Z,11.15
2024-01-24T06:12:02.363Z,12.95
2024-01-24T06:13:03.393Z,12.95
2024-01-24T06:14:04.409Z,12.95
2024-01-24T06:15:05.582Z,11.15
2024-01-24T06:16:06.404Z,11.15
2024-01-24T06:17:07.498Z,14.75
2024-01-24T06:18:08.430Z,16.56
2024-01-24T06:19:09.444Z,16.56
2024-01-24T06:20:10.381Z,11.15
2024-01-24T06:21:11.422Z,25.55
2024-01-24T06:22:12.458Z,25.55
2024-01-24T06:23:13.537Z,20.16
2024-01-24T06:24:14.491Z,20.16
2024-01-24T06:25:15.500Z,20.16
2024-01-24T06:26:16.444Z,18.36
2024-01-24T06:27:17.480Z,21.96
2024-01-24T06:28:18.432Z,23.75
2024-01-24T06:30:14.558Z,18.36
2024-01-24T06:30:23.365Z,18.36
2024-01-24T06:31:21.461Z,11.15
2024-01-24T06:32:22.428Z,18.36
2024-01-24T06:33:23.436Z,18.36
2024-01-24T06:34:24.482Z,21.96
2024-01-24T06:35:25.403Z,21.96
2024-01-24T06:36:26.431Z,14.75
2024-01-24T06:37:27.400Z,16.56
2024-01-24T06:38:28.445Z,25.55
2024-01-24T06:39:29.418Z,25.55
2024-01-24T06:40:30.417Z,12.95
2024-01-24T06:41:31.406Z,18.36
2024-01-24T06:42:32.443Z,18.36
2024-01-24T06:43:33.393Z,31.31
2024-01-24T06:44:34.428Z,31.31
2024-01-24T06:45:35.589Z,27.71
2024-01-24T06:46:36.420Z,14.75
2024-01-24T06:47:37.419Z,14.75
2024-01-24T06:48:38.514Z,16.56
2024-01-24T06:49:39.507Z,14.75
2024-01-24T06:50:40.431Z,14.75
2024-01-24T06:51:41.460Z,16.56
2024-01-24T06:52:42.429Z,16.56
2024-01-24T06:53:43.483Z,11.15
2024-01-24T06:54:44.404Z,25.55
2024-01-24T06:55:45.433Z,25.55
2024-01-24T06:56:46.437Z,18.36
2024-01-24T06:57:47.583Z,21.96
2024-01-24T06:58:48.411Z,25.55
2024-01-24T06:59:49.447Z,25.55
2024-01-24T07:00:50.687Z,16.56
2024-01-24T07:01:51.462Z,18.36
2024-01-24T07:02:52.441Z,23.75
2024-01-24T07:03:53.484Z,21.96
2024-01-24T07:04:54.467Z,20.16
2024-01-24T07:05:55.460Z,21.96
2024-01-24T07:06:56.602Z,21.96
2024-01-24T07:07:57.441Z,33.12
2024-01-24T07:08:58.501Z,33.12
2024-01-24T07:09:59.506Z,29.51
2024-01-24T07:11:00.441Z,29.51
2024-01-24T07:12:01.520Z,23.75
2024-01-24T07:13:02.637Z,20.16
2024-01-24T07:14:03.506Z,20.16
2024-01-24T07:15:04.661Z,25.55
2024-01-24T07:16:05.574Z,25.55
2024-01-24T07:17:06.544Z,25.55
2024-01-24T07:18:07.686Z,29.51
2024-01-24T07:19:08.580Z,29.51
2024-01-24T07:20:09.544Z,29.51
2024-01-24T07:21:10.524Z,43.92
2024-01-24T07:22:11.637Z,43.92
2024-01-24T07:23:12.514Z,31.31
2024-01-24T07:24:13.592Z,31.31
2024-01-24T07:25:14.614Z,27.71
2024-01-24T07:26:15.513Z,25.55
2024-01-24T07:27:16.625Z,25.55
2024-01-24T07:28:17.513Z,21.96
2024-01-24T07:29:18.517Z,21.96
2024-01-24T07:30:19.711Z,25.55
2024-01-24T07:31:20.588Z,25.55
2024-01-24T07:32:21.533Z,23.75
2024-01-24T07:33:25.062Z,36.72
2024-01-24T07:34:23.593Z,36.72
2024-01-24T07:35:24.568Z,23.75
2024-01-24T07:36:25.546Z,16.56
2024-01-24T07:37:26.567Z,21.96
2024-01-24T07:38:27.560Z,25.55
2024-01-24T07:39:28.737Z,25.55
2024-01-24T07:40:29.559Z,16.56
2024-01-24T07:41:30.533Z,20.16
2024-01-24T07:42:31.550Z,25.55
2024-01-24T07:43:32.532Z,25.55
2024-01-24T07:44:33.613Z,21.96
2024-01-24T07:45:34.755Z,21.96
2024-01-24T07:46:35.597Z,23.75
2024-01-24T07:47:36.602Z,23.75
2024-01-24T07:48:37.709Z,20.16
2024-01-24T07:49:38.990Z,18.36
2024-01-24T07:50:39.563Z,18.36
2024-01-24T07:51:40.567Z,14.75
2024-01-24T07:52:43.111Z,14.75
2024-01-24T07:53:42.597Z,14.75
2024-01-24T07:54:43.667Z,11.15
2024-01-24T07:55:53.442Z,16.56
2024-01-24T07:56:45.560Z,20.16
2024-01-24T07:57:46.629Z,20.16
2024-01-24T07:58:47.654Z,21.96
2024-01-24T07:59:48.627Z,21.96
2024-01-24T08:00:49.916Z,27.71
2024-01-24T08:01:50.913Z,16.56
2024-01-24T08:02:52.071Z,16.56
2024-01-24T08:03:52.649Z,14.75
2024-01-24T08:04:53.840Z,21.96
2024-01-24T08:05:54.622Z,21.96
2024-01-24T08:06:55.629Z,21.96
2024-01-24T08:07:56.583Z,21.96
2024-01-24T08:08:57.573Z,21.96
2024-01-24T08:09:58.747Z,21.96
2024-01-24T08:10:59.583Z,18.36
2024-01-24T08:12:00.576Z,18.36
2024-01-24T08:13:01.625Z,16.56
2024-01-24T08:14:02.609Z,29.51
2024-01-24T08:15:04.819Z,31.31
2024-01-24T08:16:04.665Z,27.71
2024-01-24T08:17:05.644Z,14.75
2024-01-24T08:18:06.705Z,16.56
2024-01-24T08:19:07.899Z,23.75
2024-01-24T08:20:08.626Z,23.75
2024-01-24T08:21:09.619Z,21.96
2024-01-24T08:22:10.679Z,18.36
2024-01-24T08:23:11.587Z,12.95
2024-01-24T08:24:12.576Z,23.75
2024-01-24T08:25:13.714Z,23.75
2024-01-24T08:26:14.581Z,20.16
2024-01-24T08:27:15.672Z,12.95
2024-01-24T08:28:16.659Z,12.95
2024-01-24T08:29:25.729Z,16.56
2024-01-24T08:30:18.794Z,20.16
2024-01-24T08:31:19.576Z,11.15
2024-01-24T08:32:20.596Z,14.75
2024-01-24T08:33:21.754Z,14.75
2024-01-24T08:34:22.618Z,11.15
2024-01-24T08:35:23.580Z,12.95
2024-01-24T08:36:24.880Z,9.36
2024-01-24T08:37:25.612Z,9.36
2024-01-24T08:38:26.611Z,16.56
2024-01-24T08:39:27.598Z,18.36
2024-01-24T08:40:28.644Z,18.36
2024-01-24T08:41:29.609Z,16.56
2024-01-24T08:42:30.619Z,12.95
2024-01-24T08:43:31.578Z,16.56
2024-01-24T08:44:32.590Z,16.56
2024-01-24T08:45:34.076Z,14.75
2024-01-24T08:46:34.614Z,23.75
2024-01-24T08:47:35.634Z,23.75
2024-01-24T08:48:36.735Z,21.96
2024-01-24T08:49:38.061Z,23.75
2024-01-24T08:50:38.619Z,14.75
2024-01-24T08:51:39.606Z,21.96
2024-01-24T08:52:40.666Z,14.75
2024-01-24T08:53:41.602Z,12.95
2024-01-24T08:54:42.694Z,16.56
2024-01-24T08:55:43.681Z,23.75
2024-01-24T08:56:44.610Z,23.75
2024-01-24T08:57:45.689Z,21.96
2024-01-24T08:58:46.634Z,25.55
2024-01-24T08:59:47.643Z,23.75
2024-01-24T09:00:48.954Z,21.96
2024-01-24T09:01:49.655Z,27.71
2024-01-24T09:02:50.641Z,21.96
2024-01-24T09:03:51.676Z,29.51
2024-01-24T09:04:52.698Z,29.51
2024-01-24T09:05:53.677Z,23.75
2024-01-24T09:06:54.688Z,23.75
2024-01-24T09:07:55.626Z,23.75
2024-01-24T09:08:56.660Z,16.56
2024-01-24T09:09:57.660Z,16.56
2024-01-24T09:10:58.723Z,20.16
2024-01-24T09:11:59.617Z,20.16
2024-01-24T09:13:00.752Z,18.36
2024-01-24T09:14:01.633Z,18.36
2024-01-24T09:15:03.641Z,18.36
2024-01-24T09:16:03.650Z,21.96
2024-01-24T09:17:04.623Z,25.55
2024-01-24T09:18:05.748Z,20.16
2024-01-24T09:19:06.841Z,9.36
2024-01-24T09:20:07.910Z,9.36
2024-01-24T09:21:08.663Z,11.15
2024-01-24T09:22:09.717Z,16.56
2024-01-24T09:23:10.692Z,18.36
2024-01-24T09:24:11.690Z,18.36
2024-01-24T09:25:13.384Z,29.51
2024-01-24T09:26:13.791Z,29.51
2024-01-24T09:27:14.700Z,29.51
2024-01-24T09:28:15.761Z,21.96
2024-01-24T09:29:16.723Z,25.55
2024-01-24T09:30:18.050Z,20.16
2024-01-24T09:31:18.627Z,20.16
2024-01-24T09:32:19.615Z,20.16
2024-01-24T09:33:20.823Z,14.75
2024-01-24T09:34:21.767Z,27.71
2024-01-24T09:35:22.863Z,27.71
2024-01-24T09:36:23.655Z,18.36
2024-01-24T09:37:24.701Z,16.56
2024-01-24T09:38:25.685Z,20.16
2024-01-24T09:39:26.818Z,21.96
2024-01-24T09:40:27.758Z,21.96
2024-01-24T09:41:28.667Z,14.75
2024-01-24T09:42:29.849Z,20.16
2024-01-24T09:43:30.652Z,20.16
2024-01-24T09:44:31.637Z,20.16
2024-01-24T09:45:32.866Z,12.95
2024-01-24T09:46:33.670Z,23.75
2024-01-24T09:47:34.640Z,23.75
2024-01-24T09:48:35.770Z,18.36
2024-01-24T09:49:36.852Z,20.16
2024-01-24T09:50:37.681Z,21.96
2024-01-24T09:51:38.702Z,21.96
2024-01-24T09:52:39.654Z,20.16
2024-01-24T09:53:40.794Z,20.16
2024-01-24T09:54:41.817Z,20.16
2024-01-24T09:55:42.774Z,23.75
2024-01-24T09:56:43.764Z,23.75
2024-01-24T09:57:44.687Z,29.51
2024-01-24T09:58:45.680Z,29.51
2024-01-24T09:59:46.680Z,29.51
2024-01-24T10:00:47.977Z,29.51
2024-01-24T10:01:48.775Z,18.36
2024-01-24T10:02:49.773Z,14.75
2024-01-24T10:03:50.933Z,21.96
2024-01-24T10:04:51.926Z,18.36
2024-01-24T10:05:52.799Z,21.96
2024-01-24T10:06:53.964Z,21.96
2024-01-24T10:07:54.868Z,23.75
2024-01-24T10:08:55.791Z,23.75
2024-01-24T10:09:58.777Z,20.16
2024-01-24T10:10:57.790Z,20.16
2024-01-24T10:11:58.730Z,16.56
2024-01-24T10:12:59.748Z,20.16
2024-01-24T10:14:00.700Z,21.96
2024-01-24T10:15:02.605Z,27.71
2024-01-24T10:16:02.924Z,23.75
2024-01-24T10:17:03.820Z,20.16
2024-01-24T10:18:04.882Z,16.56
2024-01-24T10:19:05.886Z,18.36
2024-01-24T10:20:06.838Z,18.36
2024-01-24T10:21:07.816Z,18.36
2024-01-24T10:22:10.722Z,18.36
2024-01-24T10:23:09.660Z,18.36
2024-01-24T10:24:10.786Z,12.95
2024-01-24T10:25:11.875Z,18.36
2024-01-24T10:26:12.874Z,21.96
2024-01-24T10:27:13.842Z,21.96
2024-01-24T10:28:14.987Z,20.16
2024-01-24T10:29:15.843Z,21.96
2024-01-24T10:30:17.113Z,21.96
2024-01-24T10:31:17.832Z,16.56
2024-01-24T10:32:18.798Z,14.75
2024-01-24T10:33:20.316Z,16.56
2024-01-24T10:34:20.877Z,16.56
2024-01-24T10:35:21.926Z,16.56
2024-01-24T10:36:27.683Z,14.75
2024-01-24T10:37:23.851Z,23.75
2024-01-24T10:38:24.802Z,23.75
2024-01-24T10:39:25.702Z,21.96
2024-01-24T10:40:26.713Z,21.96
2024-01-24T10:41:27.700Z,27.71
2024-01-24T10:42:28.792Z,27.71
2024-01-24T10:43:29.826Z,25.55
2024-01-24T10:44:30.754Z,18.36
2024-01-24T10:45:31.948Z,23.75
2024-01-24T10:46:32.744Z,16.56
2024-01-24T10:47:33.787Z,18.36
2024-01-24T10:48:34.887Z,16.56
2024-01-24T10:49:35.908Z,20.16
2024-01-24T10:50:36.788Z,20.16
2024-01-24T10:51:37.736Z,25.55
2024-01-24T10:52:38.712Z,25.55
2024-01-24T10:53:39.711Z,27.71
2024-01-24T10:54:40.762Z,25.55
2024-01-24T10:55:41.722Z,25.55
2024-01-24T10:56:42.726Z,21.96
2024-01-24T10:57:44.134Z,21.96
2024-01-24T10:58:44.760Z,18.36
2024-01-24T10:59:45.738Z,20.16
2024-01-24T11:00:47.027Z,23.75
2024-01-24T11:01:47.804Z,33.12
2024-01-24T11:02:48.743Z,31.31
2024-01-24T11:03:49.735Z,23.75
2024-01-24T11:04:50.760Z,23.75
2024-01-24T11:05:51.869Z,25.55
2024-01-24T11:06:52.760Z,27.71
2024-01-24T11:07:53.706Z,18.36
2024-01-24T11:08:54.709Z,21.96
2024-01-24T11:09:55.906Z,21.96
2024-01-24T11:10:56.744Z,20.16
2024-01-24T11:11:57.767Z,20.16
2024-01-24T11:12:59.010Z,16.56
2024-01-24T11:13:59.736Z,12.95
2024-01-24T11:15:01.132Z,29.51
2024-01-24T11:16:01.744Z,29.51
2024-01-24T11:17:02.806Z,18.36
2024-01-24T11:18:03.752Z,12.95
2024-01-24T11:19:04.820Z,27.71
2024-01-24T11:20:05.829Z,27.71
2024-01-24T11:21:06.725Z,20.16
2024-01-24T11:22:13.596Z,23.75
2024-01-24T11:23:08.724Z,23.75
2024-01-24T11:24:09.738Z,23.75
2024-01-24T11:25:10.770Z,16.56
2024-01-24T11:26:11.733Z,23.75
2024-01-24T11:27:12.734Z,23.75
2024-01-24T11:28:13.788Z,21.96
2024-01-24T11:29:14.817Z,18.36
2024-01-24T11:30:15.968Z,20.16
2024-01-24T11:31:16.853Z,20.16
2024-01-24T11:32:17.735Z,16.56
2024-01-24T11:33:18.897Z,18.36
2024-01-24T11:34:19.805Z,18.36
2024-01-24T11:35:20.770Z,11.15
2024-01-24T11:36:21.798Z,20.16
2024-01-24T11:37:22.740Z,25.55
2024-01-24T11:38:26.964Z,21.96
2024-01-24T11:39:24.796Z,20.16
2024-01-24T11:40:25.768Z,18.36
2024-01-24T11:41:26.752Z,16.56
2024-01-24T11:42:27.777Z,18.36
2024-01-24T11:43:29.839Z,21.96
2024-01-24T11:44:29.795Z,16.56
2024-01-24T11:45:31.017Z,20.16
2024-01-24T11:46:31.732Z,16.56
2024-01-24T11:47:32.777Z,25.55
2024-01-24T11:48:33.962Z,25.55
2024-01-24T11:49:34.955Z,21.96
2024-01-24T11:50:35.806Z,21.96
2024-01-24T11:51:36.926Z,25.55
2024-01-24T11:52:37.754Z,25.55
2024-01-24T11:53:38.777Z,21.96
2024-01-24T11:54:40.001Z,14.75
2024-01-24T11:55:40.803Z,21.96
2024-01-24T11:56:41.764Z,21.96
2024-01-24T11:57:42.870Z,21.96
2024-01-24T11:58:43.813Z,21.96
2024-01-24T11:59:44.794Z,21.96
2024-01-24T12:00:46.089Z,21.96
2024-01-24T12:01:46.815Z,21.96
2024-01-24T12:02:50.679Z,18.36
2024-01-24T12:03:49.958Z,18.36
2024-01-24T12:04:49.779Z,23.75
2024-01-24T12:05:50.853Z,23.75
2024-01-24T12:06:51.891Z,21.96
2024-01-24T12:07:52.761Z,21.96
2024-01-24T12:08:55.860Z,18.36
2024-01-24T12:09:54.961Z,11.15
2024-01-24T12:10:55.798Z,20.16
2024-01-24T12:11:56.874Z,29.51
2024-01-24T12:12:57.902Z,29.51
2024-01-24T12:13:58.825Z,29.51
2024-01-24T12:14:59.837Z,29.51
2024-01-24T12:16:00.873Z,21.96
2024-01-24T12:17:01.766Z,20.16
2024-01-24T12:18:02.878Z,34.92
2024-01-24T12:19:03.882Z,34.92
2024-01-24T12:20:04.892Z,31.31
2024-01-24T12:21:05.849Z,27.71
2024-01-24T12:22:06.801Z,18.36
2024-01-24T12:23:07.859Z,20.16
2024-01-24T12:24:08.755Z,33.12
2024-01-24T12:25:09.886Z,20.16
2024-01-24T12:26:10.793Z,21.96
2024-01-24T12:27:11.773Z,23.75
2024-01-24T12:28:12.794Z,23.75
2024-01-24T12:29:13.818Z,18.36
2024-01-24T12:30:15.904Z,16.56
2024-01-24T12:31:15.829Z,16.56
2024-01-24T12:32:16.767Z,18.36
2024-01-24T12:33:17.941Z,18.36
2024-01-24T12:34:18.845Z,20.16
2024-01-24T12:35:19.947Z,20.16
2024-01-24T12:36:20.768Z,18.36
2024-01-24T12:37:21.777Z,23.75
2024-01-24T12:38:22.790Z,23.75
2024-01-24T12:39:23.796Z,21.96
2024-01-24T12:40:24.811Z,16.56
2024-01-24T12:41:25.815Z,23.75
2024-01-24T12:42:26.825Z,33.12
2024-01-24T12:43:27.782Z,33.12
2024-01-24T12:44:28.816Z,27.71
2024-01-24T12:45:30.038Z,27.71
2024-01-24T12:46:31.591Z,29.51
2024-01-24T12:47:31.774Z,29.51
2024-01-24T12:48:33.078Z,29.51
2024-01-24T12:49:34.093Z,23.75
2024-01-24T12:50:34.942Z,16.56
2024-01-24T12:51:37.465Z,29.51
2024-01-24T12:52:36.786Z,29.51
2024-01-24T12:53:37.784Z,21.96
2024-01-24T12:54:38.843Z,21.96
2024-01-24T12:55:39.763Z,18.36
2024-01-24T12:56:40.782Z,27.71
2024-01-24T12:57:41.908Z,27.71
2024-01-24T12:58:42.763Z,23.75
2024-01-24T12:59:43.823Z,23.75
2024-01-24T13:00:45.097Z,21.96
2024-01-24T13:01:45.909Z,27.71
2024-01-24T13:02:46.763Z,27.71
2024-01-24T13:03:47.901Z,27.71
2024-01-24T13:04:48.838Z,27.71
2024-01-24T13:05:51.464Z,16.56
2024-01-24T13:06:50.863Z,18.36
2024-01-24T13:07:51.815Z,21.96